Time,TemperatureF,DewpointF,PressureIn,WindDirection,WindDirectionDegrees,WindSpeedMPH,WindSpeedGustMPH,Humidity,HourlyPrecipIn,Conditions,Clouds,dailyrainin,SoftwareType,DateUTC
2013-07-15 00:00:00,69.2,67.1,30.11,North,355,0.0,0.0,93,0.00,,OVC100,0.00,VWS V14.01,2013-07-15 05:00:00,
2013-07-15 00:10:00,69.1,67.3,30.11,North,355,0.0,2.1,94,0.00,,OVC090,0.00,VWS V14.01,2013-07-15 05:10:00,
2013-07-15 00:20:00,69.0,67.2,30.11,NNW,348,1.0,2.1,94,0.00,,OVC090,0.00,VWS V14.01,2013-07-15 05:20:00,
2013-07-15 00:25:00,68.9,67.1,30.11,North,355,0.0,2.1,94,0.00,,OVC090,0.00,VWS V14.01,2013-07-15 05:25:00,
2013-07-15 00:30:00,68.9,67.1,30.10,NNE,30,2.0,3.1,94,0.00,,OVC090,0.00,VWS V14.01,2013-07-15 05:30:00,
2013-07-15 00:35:00,68.9,67.1,30.10,NNE,30,0.0,4.2,94,0.00,,OVC090,0.00,VWS V14.01,2013-07-15 05:35:00,
2013-07-15 00:40:00,68.8,67.0,30.10,NNE,29,2.0,3.1,94,0.00,,OVC090,0.00,VWS V14.01,2013-07-15 05:40:00,
2013-07-15 00:45:00,68.8,67.3,30.10,NE,37,0.0,3.1,95,0.00,,OVC090,0.00,VWS V14.01,2013-07-15 05:45:00,
2013-07-15 00:50:00,68.8,67.3,30.10,NE,37,2.0,3.1,95,0.00,,OVC090,0.00,VWS V14.01,2013-07-15 05:50:00,
2013-07-15 00:55:00,68.7,66.9,30.10,NNE,33,0.0,3.1,94,0.00,,OVC090,0.00,VWS V14.01,2013-07-15 05:55:00,
2013-07-15 01:05:00,68.7,67.2,30.10,NNE,21,0.0,3.1,95,0.00,,OVC100,0.00,VWS V14.01,2013-07-15 06:05:00,
2013-07-15 01:10:00,68.7,67.2,30.10,NNE,33,0.0,4.2,95,0.00,,OVC100,0.00,VWS V14.01,2013-07-15 06:10:00,
2013-07-15 01:15:00,68.7,67.2,30.10,NE,42,1.0,4.2,95,0.00,,OVC100,0.00,VWS V14.01,2013-07-15 06:15:00,
2013-07-15 01:25:00,68.6,67.1,30.10,NE,46,1.0,3.1,95,0.00,,OVC100,0.00,VWS V14.01,2013-07-15 06:25:00,
2013-07-15 01:30:00,68.5,67.0,30.10,NE,49,1.0,2.1,95,0.00,,OVC100,0.00,VWS V14.01,2013-07-15 06:30:00,
2013-07-15 01:40:00,68.2,66.7,30.10,NE,50,3.0,5.2,95,0.00,,OVC100,0.00,VWS V14.01,2013-07-15 06:40:00,
2013-07-15 01:45:00,68.1,66.6,30.10,NE,52,3.0,3.1,95,0.00,,BKN100,0.00,VWS V14.01,2013-07-15 06:45:00,
2013-07-15 01:50:00,67.9,66.4,30.10,NE,54,1.0,4.2,95,0.00,,BKN100,0.00,VWS V14.01,2013-07-15 06:50:00,
2013-07-15 01:55:00,67.8,66.3,30.10,NE,55,4.0,4.2,95,0.00,,BKN100,0.00,VWS V14.01,2013-07-15 06:55:00,
2013-07-15 02:00:00,67.8,66.3,30.10,ENE,59,0.0,4.2,95,0.00,,BKN100,0.00,VWS V14.01,2013-07-15 07:00:00,
2013-07-15 02:05:00,67.8,66.3,30.10,ENE,59,2.0,2.1,95,0.00,,SCT100,0.00,VWS V14.01,2013-07-15 07:05:00,
2013-07-15 02:10:00,67.8,66.3,30.10,ENE,59,1.0,2.1,95,0.00,,SCT100,0.00,VWS V14.01,2013-07-15 07:10:00,
2013-07-15 02:15:00,67.7,66.2,30.10,NE,56,2.0,3.1,95,0.00,,SCT100,0.00,VWS V14.01,2013-07-15 07:15:00,
2013-07-15 02:20:00,67.6,66.1,30.10,NE,56,0.0,3.1,95,0.00,,SCT100,0.00,VWS V14.01,2013-07-15 07:20:00,
2013-07-15 02:25:00,67.4,65.9,30.10,NE,56,1.0,2.1,95,0.00,,,0.00,VWS V14.01,2013-07-15 07:25:00,
2013-07-15 02:30:00,67.4,65.9,30.10,NE,56,1.0,2.1,95,0.00,,,0.00,VWS V14.01,2013-07-15 07:30:00,
2013-07-15 02:40:00,67.1,65.6,30.10,NE,56,0.0,2.1,95,0.00,,,0.00,VWS V14.01,2013-07-15 07:40:00,
2013-07-15 02:45:00,66.9,65.4,30.10,NE,56,0.0,0.0,95,0.00,,,0.00,VWS V14.01,2013-07-15 07:45:00,
2013-07-15 02:55:00,66.7,65.2,30.10,ENE,57,0.0,2.1,95,0.00,,,0.00,VWS V14.01,2013-07-15 07:55:00,
2013-07-15 03:00:00,66.6,65.1,30.10,ENE,57,0.0,1.0,95,0.00,,,0.00,VWS V14.01,2013-07-15 08:00:00,
2013-07-15 03:05:00,66.5,65.0,30.10,ENE,57,0.0,2.1,95,0.00,,,0.00,VWS V14.01,2013-07-15 08:05:00,
2013-07-15 03:10:00,66.5,65.0,30.10,ENE,57,0.0,1.0,95,0.00,,,0.00,VWS V14.01,2013-07-15 08:10:00,
2013-07-15 03:15:00,66.3,64.8,30.10,ENE,57,0.0,1.0,95,0.00,,,0.00,VWS V14.01,2013-07-15 08:15:00,
2013-07-15 03:25:00,66.2,64.7,30.10,ENE,57,0.0,0.0,95,0.00,,,0.00,VWS V14.01,2013-07-15 08:25:00,
2013-07-15 03:30:00,66.2,64.7,30.10,ENE,66,0.0,2.1,95,0.00,,,0.00,VWS V14.01,2013-07-15 08:30:00,
2013-07-15 03:35:00,66.2,64.7,30.10,ENE,66,0.0,1.0,95,0.00,,,0.00,VWS V14.01,2013-07-15 08:35:00,
2013-07-15 03:40:00,66.2,65.0,30.10,ENE,66,1.0,2.1,96,0.00,,,0.00,VWS V14.01,2013-07-15 08:40:00,
2013-07-15 03:45:00,66.1,64.6,30.10,ENE,66,1.0,2.1,95,0.00,,,0.00,VWS V14.01,2013-07-15 08:45:00,
2013-07-15 03:50:00,66.0,64.5,30.10,ENE,66,0.0,2.1,95,0.00,,,0.00,VWS V14.01,2013-07-15 08:50:00,
2013-07-15 03:55:00,65.9,64.4,30.10,ENE,66,0.0,1.0,95,0.00,,,0.00,VWS V14.01,2013-07-15 08:55:00,
2013-07-15 04:00:00,65.8,64.6,30.10,ENE,66,0.0,1.0,96,0.00,,,0.00,VWS V14.01,2013-07-15 09:00:00,
2013-07-15 04:10:00,65.8,64.6,30.10,East,87,0.0,3.1,96,0.00,,,0.00,VWS V14.01,2013-07-15 09:10:00,
2013-07-15 04:15:00,65.8,64.6,30.10,East,88,0.0,2.1,96,0.00,,,0.00,VWS V14.01,2013-07-15 09:15:00,
2013-07-15 04:20:00,65.8,64.6,30.10,East,90,2.0,3.1,96,0.00,,,0.00,VWS V14.01,2013-07-15 09:20:00,
2013-07-15 04:25:00,65.8,64.6,30.10,East,97,0.0,3.1,96,0.00,,,0.00,VWS V14.01,2013-07-15 09:25:00,
2013-07-15 04:30:00,65.8,64.6,30.10,ESE,113,1.0,3.1,96,0.00,,,0.00,VWS V14.01,2013-07-15 09:30:00,
2013-07-15 04:35:00,65.9,64.7,30.10,SE,130,2.0,3.1,96,0.00,,,0.00,VWS V14.01,2013-07-15 09:35:00,
2013-07-15 04:40:00,66.0,64.8,30.10,SSE,156,1.0,3.1,96,0.00,,,0.00,VWS V14.01,2013-07-15 09:40:00,
2013-07-15 04:50:00,65.9,64.7,30.10,SSE,156,1.0,3.1,96,0.00,,,0.00,VWS V14.01,2013-07-15 09:50:00,
2013-07-15 04:55:00,65.8,64.6,30.11,SSE,156,2.0,3.1,96,0.00,,,0.00,VWS V14.01,2013-07-15 09:55:00,
2013-07-15 05:00:00,65.7,64.5,30.11,SSE,157,1.0,3.1,96,0.00,,,0.00,VWS V14.01,2013-07-15 10:00:00,
2013-07-15 05:05:00,65.6,64.4,30.11,SSE,157,1.0,3.1,96,0.00,,,0.00,VWS V14.01,2013-07-15 10:05:00,
2013-07-15 05:15:00,65.5,64.3,30.11,SSE,157,0.0,5.2,96,0.00,,,0.00,VWS V14.01,2013-07-15 10:15:00,
2013-07-15 05:20:00,65.5,64.3,30.11,SSE,157,1.0,5.2,96,0.00,,,0.00,VWS V14.01,2013-07-15 10:20:00,
2013-07-15 05:25:00,65.5,64.3,30.11,SSE,157,2.0,3.1,96,0.00,,,0.00,VWS V14.01,2013-07-15 10:25:00,
2013-07-15 05:35:00,65.3,63.8,30.11,SSE,157,0.0,3.1,95,0.00,,,0.00,VWS V14.01,2013-07-15 10:35:00,
2013-07-15 05:40:00,65.2,63.7,30.11,SSE,157,1.0,5.2,95,0.00,,,0.00,VWS V14.01,2013-07-15 10:40:00,
2013-07-15 05:45:00,65.1,63.6,30.11,SSE,157,1.0,2.1,95,0.00,,,0.00,VWS V14.01,2013-07-15 10:45:00,
2013-07-15 05:50:00,65.1,63.6,30.11,SSE,157,2.0,3.1,95,0.00,,,0.00,VWS V14.01,2013-07-15 10:50:00,
2013-07-15 05:55:00,65.1,63.6,30.11,SSE,157,3.0,5.2,95,0.00,,,0.00,VWS V14.01,2013-07-15 10:55:00,
2013-07-15 06:00:00,65.0,63.8,30.11,SSE,158,1.0,5.2,96,0.00,,,0.00,VWS V14.01,2013-07-15 11:00:00,
2013-07-15 06:05:00,64.9,63.7,30.11,SSE,159,6.0,6.3,96,0.00,,,0.00,VWS V14.01,2013-07-15 11:05:00,
2013-07-15 06:10:00,64.9,63.7,30.11,SSE,165,4.0,6.3,96,0.00,,,0.00,VWS V14.01,2013-07-15 11:10:00,
2013-07-15 06:20:00,64.9,63.7,30.12,South,169,2.0,7.3,96,0.00,,,0.00,VWS V14.01,2013-07-15 11:20:00,
2013-07-15 06:25:00,65.0,63.8,30.12,South,184,1.0,7.3,96,0.00,,,0.00,VWS V14.01,2013-07-15 11:25:00,
2013-07-15 06:30:00,65.1,63.9,30.12,SSW,213,0.0,3.1,96,0.00,,,0.00,VWS V14.01,2013-07-15 11:30:00,
2013-07-15 06:35:00,65.1,63.9,30.13,SW,216,2.0,3.1,96,0.00,,,0.00,VWS V14.01,2013-07-15 11:35:00,
2013-07-15 06:40:00,65.3,63.8,30.12,SW,216,0.0,3.1,95,0.00,,,0.00,VWS V14.01,2013-07-15 11:40:00,
2013-07-15 06:45:00,65.4,63.9,30.12,SW,216,2.0,2.1,95,0.00,,,0.00,VWS V14.01,2013-07-15 11:45:00,
2013-07-15 06:55:00,65.7,64.5,30.13,SW,216,0.0,2.1,96,0.00,,,0.00,VWS V14.01,2013-07-15 11:55:00,
2013-07-15 07:05:00,66.1,64.6,30.13,SW,216,1.0,2.1,95,0.00,,,0.00,VWS V14.01,2013-07-15 12:05:00,
2013-07-15 07:10:00,66.2,64.7,30.13,SSW,208,1.0,3.1,95,0.00,,,0.00,VWS V14.01,2013-07-15 12:10:00,
2013-07-15 07:20:00,66.6,65.1,30.13,SSW,208,0.0,2.1,95,0.00,,,0.00,VWS V14.01,2013-07-15 12:20:00,
2013-07-15 07:25:00,66.8,65.3,30.13,SSW,208,0.0,2.1,95,0.00,,,0.00,VWS V14.01,2013-07-15 12:25:00,
2013-07-15 07:30:00,67.0,65.5,30.13,South,186,0.0,3.1,95,0.00,,,0.00,VWS V14.01,2013-07-15 12:30:00,
2013-07-15 07:35:00,67.3,65.8,30.13,South,183,1.0,4.2,95,0.00,,,0.00,VWS V14.01,2013-07-15 12:35:00,
2013-07-15 07:40:00,67.5,66.0,30.14,South,179,3.0,3.1,95,0.00,,,0.00,VWS V14.01,2013-07-15 12:40:00,
2013-07-15 07:50:00,68.1,66.6,30.14,SSW,194,1.0,4.2,95,0.00,,,0.00,VWS V14.01,2013-07-15 12:50:00,
2013-07-15 07:55:00,68.5,66.7,30.14,SSW,199,3.0,8.4,94,0.00,,,0.00,VWS V14.01,2013-07-15 12:55:00,
2013-07-15 08:00:00,68.9,66.8,30.14,South,188,5.0,8.4,93,0.00,,,0.00,VWS V14.01,2013-07-15 13:00:00,
2013-07-15 08:10:00,69.8,67.4,30.14,South,178,4.0,7.3,92,0.00,,CLR,0.00,VWS V14.01,2013-07-15 13:10:00,
2013-07-15 08:15:00,70.1,67.4,30.14,SSW,199,5.0,9.4,91,0.00,,CLR,0.00,VWS V14.01,2013-07-15 13:15:00,
2013-07-15 08:25:00,70.8,67.4,30.14,SSW,213,4.0,9.4,89,0.00,,CLR,0.00,VWS V14.01,2013-07-15 13:25:00,
2013-07-15 08:30:00,71.2,67.8,30.14,South,184,8.0,8.4,89,0.00,,CLR,0.00,VWS V14.01,2013-07-15 13:30:00,
2013-07-15 08:35:00,71.5,67.8,30.14,South,183,7.0,9.4,88,0.00,,CLR,0.00,VWS V14.01,2013-07-15 13:35:00,
2013-07-15 08:40:00,71.9,68.2,30.14,South,190,8.0,9.4,88,0.00,,CLR,0.00,VWS V14.01,2013-07-15 13:40:00,
2013-07-15 08:45:00,72.3,68.6,30.14,South,181,3.0,8.4,88,0.00,,CLR,0.00,VWS V14.01,2013-07-15 13:45:00,
2013-07-15 08:50:00,72.7,68.6,30.15,South,189,3.0,8.4,87,0.00,,CLR,0.00,VWS V14.01,2013-07-15 13:50:00,
2013-07-15 08:55:00,73.1,68.7,30.15,South,169,5.0,8.4,86,0.00,,CLR,0.00,VWS V14.01,2013-07-15 13:55:00,
2013-07-15 09:00:00,73.5,68.7,30.15,SSW,196,4.0,10.5,85,0.00,,CLR,0.00,VWS V14.01,2013-07-15 14:00:00,
2013-07-15 09:05:00,74.0,68.9,30.15,SSW,196,4.0,7.3,84,0.00,,CLR,0.00,VWS V14.01,2013-07-15 14:05:00,
2013-07-15 09:10:00,74.4,69.3,30.15,SSW,205,3.0,9.4,84,0.00,,CLR,0.00,VWS V14.01,2013-07-15 14:10:00,
2013-07-15 09:15:00,74.9,68.7,30.15,SSW,200,7.0,9.4,81,0.00,,CLR,0.00,VWS V14.01,2013-07-15 14:15:00,
2013-07-15 09:25:00,75.8,69.9,30.15,SSW,209,5.0,7.3,82,0.00,,CLR,0.00,VWS V14.01,2013-07-15 14:25:00,
2013-07-15 09:30:00,76.2,69.9,30.15,South,174,6.0,8.4,81,0.00,,CLR,0.00,VWS V14.01,2013-07-15 14:30:00,
2013-07-15 09:35:00,76.5,69.1,30.15,SSW,198,3.0,10.5,78,0.00,,CLR,0.00,VWS V14.01,2013-07-15 14:35:00,
2013-07-15 09:40:00,76.8,69.8,30.15,SSW,200,3.0,9.4,79,0.00,,CLR,0.00,VWS V14.01,2013-07-15 14:40:00,
2013-07-15 09:50:00,77.3,69.9,30.15,SSW,207,3.0,10.5,78,0.00,,CLR,0.00,VWS V14.01,2013-07-15 14:50:00,
2013-07-15 10:00:00,77.7,69.9,30.15,SSW,205,6.0,10.5,77,0.00,,CLR,0.00,VWS V14.01,2013-07-15 15:00:00,
2013-07-15 10:10:00,78.0,69.8,30.15,SSW,198,5.0,9.4,76,0.00,,CLR,0.00,VWS V14.01,2013-07-15 15:10:00,
2013-07-15 10:30:00,79.3,69.9,30.14,SSW,202,5.0,9.4,73,0.00,,CLR,0.00,VWS V14.01,2013-07-15 15:30:00,
2013-07-15 10:40:00,79.8,70.4,30.14,SSE,166,5.0,10.5,73,0.00,,CLR,0.00,VWS V14.01,2013-07-15 15:40:00,
2013-07-15 10:50:00,80.1,69.4,30.14,SW,227,8.0,11.5,70,0.00,,CLR,0.00,VWS V14.01,2013-07-15 15:50:00,
2013-07-15 10:55:00,80.3,70.9,30.14,SW,228,3.0,9.4,73,0.00,,CLR,0.00,VWS V14.01,2013-07-15 15:55:00,
2013-07-15 11:05:00,80.8,70.1,30.14,SW,229,7.0,11.5,70,0.00,,CLR,0.00,VWS V14.01,2013-07-15 16:05:00,
2013-07-15 11:15:00,81.1,70.4,30.14,SSW,200,4.0,8.4,70,0.00,,CLR,0.00,VWS V14.01,2013-07-15 16:15:00,
2013-07-15 11:25:00,81.7,71.0,30.14,SW,232,8.0,10.5,70,0.00,,CLR,0.00,VWS V14.01,2013-07-15 16:25:00,
2013-07-15 11:35:00,82.0,70.4,30.14,SSW,202,9.0,10.5,68,0.00,,CLR,0.00,VWS V14.01,2013-07-15 16:35:00,
2013-07-15 11:45:00,82.3,70.3,30.13,SSW,208,5.0,8.4,67,0.00,,CLR,0.00,VWS V14.01,2013-07-15 16:45:00,
2013-07-15 11:50:00,82.6,69.2,30.14,South,188,6.0,10.5,64,0.00,,CLR,0.00,VWS V14.01,2013-07-15 16:50:00,
2013-07-15 11:55:00,82.6,70.1,30.14,SSW,203,7.0,9.4,66,0.00,,CLR,0.00,VWS V14.01,2013-07-15 16:55:00,
2013-07-15 12:05:00,83.1,70.1,30.13,SSW,194,5.0,12.6,65,0.00,,CLR,0.00,VWS V14.01,2013-07-15 17:05:00,
2013-07-15 12:15:00,83.2,68.4,30.13,SSE,167,10.0,13.6,61,0.00,,CLR,0.00,VWS V14.01,2013-07-15 17:15:00,
2013-07-15 12:25:00,83.4,69.0,30.13,South,177,6.0,10.5,62,0.00,,CLR,0.00,VWS V14.01,2013-07-15 17:25:00,
2013-07-15 12:30:00,82.9,68.6,30.13,SSW,194,10.0,11.5,62,0.00,,CLR,0.00,VWS V14.01,2013-07-15 17:30:00,
2013-07-15 12:35:00,83.2,68.4,30.13,SSW,202,7.0,11.5,61,0.00,,CLR,0.00,VWS V14.01,2013-07-15 17:35:00,
2013-07-15 12:40:00,83.8,70.3,30.13,SSE,161,5.0,9.4,64,0.00,,CLR,0.00,VWS V14.01,2013-07-15 17:40:00,
2013-07-15 12:45:00,83.9,69.0,30.13,SSW,196,9.0,12.6,61,0.00,,SCT050,0.00,VWS V14.01,2013-07-15 17:45:00,
2013-07-15 12:55:00,83.5,67.7,30.13,SSW,198,9.0,19.9,59,0.00,,SCT050,0.00,VWS V14.01,2013-07-15 17:55:00,
2013-07-15 13:00:00,83.7,68.8,30.12,South,187,6.0,11.5,61,0.00,,SCT050,0.00,VWS V14.01,2013-07-15 18:00:00,
2013-07-15 13:10:00,84.0,68.6,30.12,South,172,11.0,12.6,60,0.00,,SCT050,0.00,VWS V14.01,2013-07-15 18:10:00,
2013-07-15 13:15:00,84.2,70.2,30.12,SSE,165,4.0,13.6,63,0.00,,SCT050,0.00,VWS V14.01,2013-07-15 18:15:00,
2013-07-15 13:20:00,84.6,68.7,30.12,SSE,165,11.0,13.6,59,0.00,,SCT050,0.00,VWS V14.01,2013-07-15 18:20:00,
2013-07-15 13:30:00,84.1,68.7,30.12,South,175,7.0,12.6,60,0.00,,SCT050,0.00,VWS V14.01,2013-07-15 18:30:00,
2013-07-15 13:40:00,83.7,68.8,30.12,South,175,8.0,13.6,61,0.00,,SCT050,0.00,VWS V14.01,2013-07-15 18:40:00,
2013-07-15 13:45:00,83.6,67.8,30.12,SSW,209,7.0,11.5,59,0.00,,SCT050,0.00,VWS V14.01,2013-07-15 18:45:00,
2013-07-15 13:55:00,84.1,68.2,30.12,SSW,195,2.0,11.5,59,0.00,,SCT050,0.00,VWS V14.01,2013-07-15 18:55:00,
2013-07-15 14:00:00,84.1,67.2,30.12,SSE,165,5.0,11.5,57,0.00,,SCT050,0.00,VWS V14.01,2013-07-15 19:00:00,
2013-07-15 14:15:00,84.3,67.9,30.11,South,170,5.0,15.7,58,0.00,,SCT050,0.00,VWS V14.01,2013-07-15 19:15:00,
2013-07-15 14:20:00,84.1,67.7,30.11,SSE,165,6.0,13.6,58,0.00,,SCT050,0.00,VWS V14.01,2013-07-15 19:20:00,
2013-07-15 14:25:00,84.3,69.4,30.11,South,187,6.0,12.6,61,0.00,,BKN050,0.00,VWS V14.01,2013-07-15 19:25:00,
2013-07-15 14:30:00,84.0,68.6,30.11,South,180,8.0,12.6,60,0.00,,BKN050,0.00,VWS V14.01,2013-07-15 19:30:00,
2013-07-15 14:35:00,84.1,68.2,30.11,SSE,167,6.0,11.5,59,0.00,,BKN050,0.00,VWS V14.01,2013-07-15 19:35:00,
2013-07-15 14:45:00,84.7,68.8,30.11,SSW,192,7.0,11.5,59,0.00,,BKN050,0.00,VWS V14.01,2013-07-15 19:45:00,
2013-07-15 14:50:00,84.6,67.7,30.11,South,184,4.0,13.6,57,0.00,,BKN050,0.00,VWS V14.01,2013-07-15 19:50:00,
2013-07-15 14:55:00,84.6,68.7,30.10,South,171,7.0,11.5,59,0.00,,BKN050,0.00,VWS V14.01,2013-07-15 19:55:00,
2013-07-15 15:05:00,85.0,67.0,30.10,South,189,8.0,14.7,55,0.00,,SCT050,0.00,VWS V14.01,2013-07-15 20:05:00,
2013-07-15 15:15:00,84.7,68.3,30.10,South,174,11.0,14.7,58,0.00,,SCT050,0.00,VWS V14.01,2013-07-15 20:15:00,
2013-07-15 15:25:00,85.1,67.7,30.10,SSW,196,11.0,14.7,56,0.00,,SCT050,0.00,VWS V14.01,2013-07-15 20:25:00,
2013-07-15 15:30:00,85.2,67.8,30.10,South,175,7.0,13.6,56,0.00,,SCT050,0.00,VWS V14.01,2013-07-15 20:30:00,
2013-07-15 16:20:00,84.3,67.9,30.09,SSE,157,7.0,12.6,58,0.00,,SCT050,0.00,VWS V14.01,2013-07-15 21:20:00,
2013-07-15 16:30:00,84.1,68.2,30.09,SSE,160,5.0,9.4,59,0.00,,SCT065,0.00,VWS V14.01,2013-07-15 21:30:00,
2013-07-15 16:45:00,84.4,68.5,30.08,SSE,153,4.0,10.5,59,0.00,,SCT060,0.00,VWS V14.01,2013-07-15 21:45:00,
2013-07-15 16:50:00,84.3,68.9,30.08,SSE,148,11.0,13.6,60,0.00,,SCT060,0.00,VWS V14.01,2013-07-15 21:50:00,
2013-07-15 17:00:00,83.9,68.5,30.08,South,178,6.0,11.5,60,0.00,,SCT060,0.00,VWS V14.01,2013-07-15 22:00:00,
2013-07-15 17:10:00,84.1,70.6,30.08,SSE,157,2.0,10.5,64,0.00,,SCT060,0.00,VWS V14.01,2013-07-15 22:10:00,
2013-07-15 17:15:00,84.3,69.4,30.08,SSE,165,1.0,7.3,61,0.00,,SCT060,0.00,VWS V14.01,2013-07-15 22:15:00,
2013-07-15 17:50:00,85.0,70.1,30.07,SSE,149,5.0,10.5,61,0.00,,SCT060,0.00,VWS V14.01,2013-07-15 22:50:00,
2013-07-15 18:00:00,85.0,68.6,30.07,South,187,2.0,8.4,58,0.00,,SCT060,0.00,VWS V14.01,2013-07-15 23:00:00,
2013-07-15 18:05:00,84.9,68.0,30.07,South,180,3.0,8.4,57,0.00,,CLR,0.00,VWS V14.01,2013-07-15 23:05:00,
2013-07-15 18:15:00,84.7,67.8,30.07,SE,138,7.0,8.4,57,0.00,,CLR,0.00,VWS V14.01,2013-07-15 23:15:00,
2013-07-15 18:20:00,84.6,69.2,30.07,South,172,2.0,7.3,60,0.00,,CLR,0.00,VWS V14.01,2013-07-15 23:20:00,
2013-07-15 18:25:00,84.3,69.4,30.07,SSW,194,5.0,7.3,61,0.00,,CLR,0.00,VWS V14.01,2013-07-15 23:25:00,
2013-07-15 18:35:00,83.9,68.1,30.06,South,184,4.0,9.4,59,0.00,,CLR,0.00,VWS V14.01,2013-07-15 23:35:00,
2013-07-15 18:40:00,83.9,68.1,30.06,SSW,199,4.0,9.4,59,0.00,,CLR,0.00,VWS V14.01,2013-07-15 23:40:00,
2013-07-15 18:50:00,84.1,68.7,30.06,South,185,8.0,9.4,60,0.00,,CLR,0.00,VWS V14.01,2013-07-15 23:50:00,
2013-07-15 18:55:00,84.1,68.7,30.06,South,180,6.0,8.4,60,0.00,,CLR,0.00,VWS V14.01,2013-07-15 23:55:00,
2013-07-15 19:05:00,84.0,68.6,30.06,South,183,3.0,8.4,60,0.00,,CLR,0.00,VWS V14.01,2013-07-16 00:05:00,
2013-07-15 19:10:00,83.9,69.5,30.06,South,175,3.0,4.2,62,0.00,,CLR,0.00,VWS V14.01,2013-07-16 00:10:00,
2013-07-15 19:15:00,83.8,69.4,30.06,South,183,2.0,6.3,62,0.00,,CLR,0.00,VWS V14.01,2013-07-16 00:15:00,
2013-07-15 19:25:00,83.5,70.5,30.05,South,173,1.0,4.2,65,0.00,,CLR,0.00,VWS V14.01,2013-07-16 00:25:00,
2013-07-15 19:30:00,83.3,70.8,30.06,South,169,0.0,4.2,66,0.00,,CLR,0.00,VWS V14.01,2013-07-16 00:30:00,
2013-07-15 19:45:00,82.7,71.1,30.05,SSE,167,0.0,3.1,68,0.00,,CLR,0.00,VWS V14.01,2013-07-16 00:45:00,
2013-07-15 20:00:00,81.8,72.3,30.05,SSE,167,0.0,0.0,73,0.00,,CLR,0.00,VWS V14.01,2013-07-16 01:00:00,
2013-07-15 20:05:00,81.5,72.0,30.05,SSE,167,0.0,0.0,73,0.00,,CLR,0.00,VWS V14.01,2013-07-16 01:05:00,
2013-07-15 20:15:00,80.6,72.3,30.05,SSE,167,0.0,0.0,76,0.00,,CLR,0.00,VWS V14.01,2013-07-16 01:15:00,
2013-07-15 20:25:00,79.5,72.4,30.05,SSE,167,0.0,0.0,79,0.00,,CLR,0.00,VWS V14.01,2013-07-16 01:25:00,
2013-07-15 20:30:00,79.0,72.3,30.05,SSE,167,0.0,0.0,80,0.00,,CLR,0.00,VWS V14.01,2013-07-16 01:30:00,
2013-07-15 20:40:00,78.1,71.4,30.05,SE,125,0.0,2.1,80,0.00,,CLR,0.00,VWS V14.01,2013-07-16 01:40:00,
2013-07-15 20:50:00,77.5,71.2,30.05,ESE,123,1.0,2.1,81,0.00,,CLR,0.00,VWS V14.01,2013-07-16 01:50:00,
2013-07-15 21:00:00,76.8,70.9,30.05,SE,132,1.0,3.1,82,0.00,,CLR,0.00,VWS V14.01,2013-07-16 02:00:00,
2013-07-15 21:15:00,76.4,70.5,30.05,SE,130,2.0,3.1,82,0.00,,SCT065,0.00,VWS V14.01,2013-07-16 02:15:00,
2013-07-15 21:20:00,76.2,70.7,30.05,ESE,121,1.0,3.1,83,0.00,,SCT065,0.00,VWS V14.01,2013-07-16 02:20:00,
2013-07-15 21:25:00,76.1,70.6,30.05,SE,136,1.0,3.1,83,0.00,,CLR,0.00,VWS V14.01,2013-07-16 02:25:00,
2013-07-15 21:35:00,75.6,70.4,30.06,SE,136,0.0,0.0,84,0.00,,CLR,0.00,VWS V14.01,2013-07-16 02:35:00,
2013-07-15 21:40:00,75.3,70.1,30.06,SE,136,0.0,1.0,84,0.00,,CLR,0.00,VWS V14.01,2013-07-16 02:40:00,
2013-07-15 21:55:00,75.0,69.8,30.06,SE,128,2.0,4.2,84,0.00,,CLR,0.00,VWS V14.01,2013-07-16 02:55:00,
2013-07-15 22:00:00,75.1,69.9,30.06,SE,129,4.0,6.3,84,0.00,,CLR,0.00,VWS V14.01,2013-07-16 03:00:00,
2013-07-15 22:05:00,75.2,69.7,30.06,SE,140,2.0,5.2,83,0.00,,CLR,0.00,VWS V14.01,2013-07-16 03:05:00,
2013-07-15 22:15:00,74.9,69.7,30.06,SE,134,0.0,4.2,84,0.00,,CLR,0.00,VWS V14.01,2013-07-16 03:15:00,
2013-07-15 22:20:00,74.7,69.9,30.06,SE,128,3.0,5.2,85,0.00,,SCT070,0.00,VWS V14.01,2013-07-16 03:20:00,
2013-07-15 22:30:00,74.4,69.6,30.06,SE,134,5.0,7.3,85,0.00,,SCT070,0.00,VWS V14.01,2013-07-16 03:30:00,
2013-07-15 22:40:00,74.9,70.1,30.06,SSE,150,4.0,8.4,85,0.00,,SCT070,0.00,VWS V14.01,2013-07-16 03:40:00,
2013-07-15 22:45:00,75.0,69.8,30.06,SE,138,3.0,7.3,84,0.00,,OVC070,0.00,VWS V14.01,2013-07-16 03:45:00,
2013-07-15 23:00:00,75.1,70.3,30.06,SE,142,2.0,4.2,85,0.00,,OVC070,0.00,VWS V14.01,2013-07-16 04:00:00,
2013-07-15 23:05:00,75.1,70.3,30.06,SE,129,2.0,4.2,85,0.00,,OVC070,0.00,VWS V14.01,2013-07-16 04:05:00,
2013-07-15 23:10:00,75.1,70.3,30.07,SE,139,2.0,3.1,85,0.00,,OVC070,0.00,VWS V14.01,2013-07-16 04:10:00,
2013-07-15 23:15:00,75.1,70.3,30.06,ESE,123,0.0,3.1,85,0.00,,OVC070,0.00,VWS V14.01,2013-07-16 04:15:00,
2013-07-15 23:20:00,75.0,70.2,30.07,SE,134,2.0,3.1,85,0.00,,OVC070,0.00,VWS V14.01,2013-07-16 04:20:00,
2013-07-15 23:25:00,75.0,70.5,30.07,SE,136,2.0,4.2,86,0.00,,BKN070,0.00,VWS V14.01,2013-07-16 04:25:00,
2013-07-15 23:30:00,75.1,70.3,30.07,SE,145,0.0,3.1,85,0.00,,BKN070,0.00,VWS V14.01,2013-07-16 04:30:00,
2013-07-15 23:35:00,75.1,70.3,30.06,SE,141,1.0,4.2,85,0.00,,BKN070,0.00,VWS V14.01,2013-07-16 04:35:00,
2013-07-15 23:45:00,75.4,70.6,30.06,SE,139,4.0,7.3,85,0.00,,BKN070,0.00,VWS V14.01,2013-07-16 04:45:00,
2013-07-15 23:50:00,75.7,70.5,30.06,SSE,168,6.0,10.5,84,0.00,,BKN070,0.00,VWS V14.01,2013-07-16 04:50:00,
2013-07-15 23:55:00,75.9,70.4,30.06,SE,132,5.0,9.4,83,0.00,,BKN070,0.00,VWS V14.01,2013-07-16 04:55:00,